Terminal Aerodrome Forecast
Issued by NWS Quad Cities IA IL

Home | Current Version | Previous Version | Text Only | Print | Product List | Glossary On
Versions: 1 2 3 4 5 6 7 8 9 10 11 12 13 14 15 16 17 18 19 20 21 22
000
FTUS43 KDVN 060602 AAA
TAFMLI
TAF AMD
KMLI 060602Z 0606/0706 16008KT 5SM HZ SKC
     FM061000 15009KT 4SM BR SCT150
     FM061800 18013KT P6SM VCSH SCT040 SCT120
     FM062200 19012KT P6SM VCSH BKN045
      TEMPO 0622/0702 4SM -TSRA BR OVC035CB
     FM070200 21009KT 6SM -TSRA BR OVC035CB=

USA.gov is the U.S. government's official web portal to all federal, state and local government web resources and services.